createdAt,value
2019-02-25T00:00:35.499Z,1.20
2019-02-25T00:03:03.222Z,1.20
2019-02-25T00:05:31.092Z,1.20
2019-02-25T00:07:58.514Z,1.20
2019-02-25T00:10:26.327Z,1.20
2019-02-25T00:12:53.891Z,1.20
2019-02-25T00:15:21.588Z,1.20
2019-02-25T00:17:49.089Z,1.00
2019-02-25T00:20:16.897Z,1.00
2019-02-25T00:22:44.607Z,0.90
2019-02-25T00:25:15.153Z,0.90
2019-02-25T00:27:42.871Z,1.00
2019-02-25T00:30:10.655Z,1.00
2019-02-25T00:32:38.480Z,1.00
2019-02-25T00:35:06.275Z,0.90
2019-02-25T00:37:34.124Z,0.80
2019-02-25T00:40:01.866Z,0.70
2019-02-25T00:42:29.589Z,0.70
2019-02-25T00:44:56.936Z,0.70
2019-02-25T00:47:24.405Z,0.70
2019-02-25T00:49:51.976Z,0.70
2019-02-25T00:52:19.771Z,0.60
2019-02-25T00:54:47.129Z,0.50
2019-02-25T00:57:14.852Z,0.50
2019-02-25T00:59:43.061Z,0.60
2019-02-25T01:02:11.150Z,0.60
2019-02-25T01:04:38.934Z,0.50
2019-02-25T01:07:06.875Z,0.50
2019-02-25T01:09:34.421Z,0.50
2019-02-25T01:12:01.882Z,0.50
2019-02-25T01:14:29.543Z,0.40
2019-02-25T01:16:57.179Z,0.40
2019-02-25T01:19:24.988Z,0.30
2019-02-25T01:21:52.884Z,0.30
2019-02-25T01:24:23.768Z,0.30
2019-02-25T01:26:51.448Z,0.30
2019-02-25T01:29:19.151Z,0.40
2019-02-25T01:31:47.052Z,0.40
2019-02-25T01:34:14.990Z,0.50
2019-02-25T01:36:42.707Z,0.50
2019-02-25T01:39:10.202Z,0.50
2019-02-25T01:41:38.031Z,0.40
2019-02-25T01:44:05.847Z,0.40
2019-02-25T01:46:33.679Z,0.40
2019-02-25T01:49:01.733Z,0.40
2019-02-25T01:51:29.461Z,0.30
2019-02-25T01:53:57.174Z,0.20
2019-02-25T01:56:24.960Z,0.10
2019-02-25T01:58:52.844Z,0.10
2019-02-25T02:01:20.518Z,0.00
2019-02-25T02:03:48.103Z,-0.10
2019-02-25T02:06:15.929Z,-0.20
2019-02-25T02:08:44.025Z,-0.10
2019-02-25T02:11:12.218Z,0.00
2019-02-25T02:13:40.380Z,0.00
2019-02-25T02:16:08.183Z,-0.10
2019-02-25T02:18:35.565Z,-0.10
2019-02-25T02:21:03.312Z,-0.10
2019-02-25T02:23:31.272Z,-0.20
2019-02-25T02:25:59.072Z,-0.20
2019-02-25T02:28:28.955Z,-0.20
2019-02-25T02:30:56.934Z,-0.20
2019-02-25T02:33:24.726Z,-0.20
2019-02-25T02:35:52.825Z,-0.20
2019-02-25T02:38:20.884Z,-0.20
2019-02-25T02:40:48.763Z,-0.20
2019-02-25T02:43:16.189Z,-0.20
2019-02-25T02:46:08.059Z,-0.20
2019-02-25T02:48:40.026Z,-0.20
2019-02-25T02:51:07.430Z,-0.10
2019-02-25T02:53:34.781Z,-0.10
2019-02-25T02:56:02.251Z,-0.10
2019-02-25T02:58:30.675Z,-0.20
2019-02-25T03:00:58.380Z,-0.20
2019-02-25T03:03:25.769Z,-0.20
2019-02-25T03:05:53.460Z,-0.20
2019-02-25T03:08:21.139Z,-0.20
2019-02-25T03:10:48.941Z,-0.20
2019-02-25T03:13:16.840Z,-0.10
2019-02-25T03:15:44.500Z,-0.10
2019-02-25T03:18:12.169Z,-0.10
2019-02-25T03:20:39.637Z,-0.20
2019-02-25T03:23:07.416Z,-0.20
2019-02-25T03:25:34.880Z,-0.20
2019-02-25T03:28:02.751Z,-0.30
2019-02-25T03:30:30.550Z,-0.50
2019-02-25T03:32:58.060Z,-0.60
2019-02-25T03:35:25.726Z,-0.50
2019-02-25T03:37:53.279Z,-0.40
2019-02-25T03:40:21.041Z,-0.30
2019-02-25T03:42:48.711Z,-0.40
2019-02-25T03:45:17.063Z,-0.50
2019-02-25T03:47:45.009Z,-0.60
2019-02-25T03:50:12.994Z,-0.60
2019-02-25T03:52:40.700Z,-0.50
2019-02-25T03:55:10.751Z,-0.50
2019-02-25T03:57:38.619Z,-0.50
2019-02-25T04:00:08.260Z,-0.60
2019-02-25T04:02:36.187Z,-0.60
2019-02-25T04:05:04.549Z,-0.60
2019-02-25T04:07:33.044Z,-0.60
2019-02-25T04:10:01.026Z,-0.60
2019-02-25T04:12:28.376Z,-0.60
2019-02-25T04:14:56.114Z,-0.70
2019-02-25T04:17:23.893Z,-0.60
2019-02-25T04:19:51.691Z,-0.60
2019-02-25T04:22:19.106Z,-0.70
2019-02-25T04:24:46.689Z,-0.80
2019-02-25T04:27:14.667Z,-0.70
2019-02-25T04:29:42.596Z,-0.70
2019-02-25T04:32:10.372Z,-0.70
2019-02-25T04:34:38.173Z,-0.60
2019-02-25T04:37:06.074Z,-0.50
2019-02-25T04:39:33.574Z,-0.50
2019-02-25T04:42:01.400Z,-0.60
2019-02-25T04:44:28.921Z,-0.70
2019-02-25T04:46:56.888Z,-0.80
2019-02-25T04:49:25.017Z,-0.80
2019-02-25T04:51:52.831Z,-0.70
2019-02-25T04:54:22.319Z,-0.80
2019-02-25T04:56:50.480Z,-0.80
2019-02-25T04:59:18.350Z,-0.80
2019-02-25T05:01:46.246Z,-0.90
2019-02-25T05:04:14.033Z,-0.90
2019-02-25T05:06:41.721Z,-0.90
2019-02-25T05:09:11.234Z,-0.90
2019-02-25T05:11:39.117Z,-0.90
2019-02-25T05:14:06.974Z,-0.90
2019-02-25T05:16:34.596Z,-0.80
2019-02-25T05:19:02.477Z,-0.70
2019-02-25T05:21:40.472Z,-0.60
2019-02-25T05:24:08.027Z,-0.60
2019-02-25T05:26:35.437Z,-0.60
2019-02-25T05:29:03.555Z,-0.60
2019-02-25T05:31:31.465Z,-0.60
2019-02-25T05:34:57.761Z,-0.70
2019-02-25T05:37:25.317Z,-0.90
2019-02-25T05:40:01.019Z,-0.90
2019-02-25T05:42:28.879Z,-0.90
2019-02-25T05:45:02.195Z,-0.90
2019-02-25T05:47:30.019Z,-0.90
2019-02-25T05:50:01.917Z,-0.90
2019-02-25T05:52:30.222Z,-1.00
2019-02-25T05:54:58.188Z,-1.00
2019-02-25T05:57:28.565Z,-1.10
2019-02-25T05:59:59.653Z,-1.10
2019-02-25T06:02:28.068Z,-1.10
2019-02-25T06:04:56.299Z,-1.10
2019-02-25T06:07:24.189Z,-1.10
2019-02-25T06:09:52.423Z,-1.00
2019-02-25T06:12:36.726Z,-1.10
2019-02-25T06:17:51.243Z,-1.10
2019-02-25T06:20:19.323Z,-1.10
2019-02-25T06:22:49.546Z,-1.10
2019-02-25T06:25:18.026Z,-1.20
2019-02-25T06:27:45.703Z,-1.20
2019-02-25T06:30:15.789Z,-1.10
2019-02-25T06:32:43.883Z,-1.00
2019-02-25T06:35:12.156Z,-0.90
2019-02-25T06:37:40.409Z,-0.70
2019-02-25T06:40:15.229Z,-0.30
2019-02-25T06:42:42.801Z,-0.10
2019-02-25T06:45:15.291Z,0.10
2019-02-25T06:47:42.867Z,0.20
2019-02-25T06:50:15.053Z,0.40
2019-02-25T06:55:49.469Z,1.00
2019-02-25T06:58:18.172Z,1.40
2019-02-25T07:00:47.117Z,1.60
2019-02-25T07:07:22.290Z,1.90
2019-02-25T07:10:05.630Z,2.10
2019-02-25T07:12:48.085Z,2.20
2019-02-25T07:15:26.495Z,2.30
2019-02-25T07:18:11.728Z,3.30
2019-02-25T07:20:49.338Z,4.90
2019-02-25T07:23:34.628Z,6.70
2019-02-25T07:26:21.047Z,8.30
2019-02-25T07:29:07.921Z,9.80
2019-02-25T07:31:42.975Z,10.00
2019-02-25T07:34:18.573Z,10.70
2019-02-25T08:02:25.338Z,13.70
2019-02-25T08:05:07.107Z,14.90
2019-02-25T08:07:44.728Z,15.20
2019-02-25T08:10:24.112Z,15.90
2019-02-25T08:13:08.046Z,17.40
2019-02-25T08:15:53.941Z,18.10
2019-02-25T08:18:37.851Z,17.90
2019-02-25T08:21:23.668Z,18.10
2019-02-25T08:24:11.521Z,19.40
2019-02-25T08:27:00.431Z,21.00
2019-02-25T08:30:05.875Z,21.90
2019-02-25T08:33:05.078Z,22.60
2019-02-25T08:36:50.724Z,23.00
2019-02-25T08:39:28.620Z,22.60
2019-02-25T08:42:03.168Z,22.30
2019-02-25T08:44:38.564Z,21.50
2019-02-25T08:47:30.900Z,21.20
2019-02-25T08:50:01.786Z,20.90
2019-02-25T08:52:29.524Z,20.40
2019-02-25T08:54:57.427Z,19.70
2019-02-25T08:57:25.618Z,19.30
2019-02-25T08:59:55.988Z,19.10
2019-02-25T09:02:24.499Z,19.50
2019-02-25T09:04:52.630Z,19.60
2019-02-25T09:07:22.967Z,19.60
2019-02-25T09:09:54.157Z,19.10
2019-02-25T09:12:25.060Z,19.00
2019-02-25T09:14:53.723Z,18.70
2019-02-25T09:17:22.878Z,18.70
2019-02-25T09:19:50.907Z,18.00
2019-02-25T09:22:18.835Z,17.80
2019-02-25T09:24:46.843Z,18.00
2019-02-25T09:27:14.679Z,18.10
2019-02-25T09:29:44.858Z,18.10
2019-02-25T09:32:12.783Z,17.80
2019-02-25T09:34:40.528Z,17.80
2019-02-25T09:37:08.839Z,17.80
2019-02-25T09:39:36.986Z,18.00
2019-02-25T09:42:04.825Z,17.90
2019-02-25T09:44:34.458Z,17.50
2019-02-25T09:47:05.110Z,17.40
2019-02-25T09:49:33.367Z,17.20
2019-02-25T09:52:01.215Z,16.80
2019-02-25T09:54:28.927Z,16.70
2019-02-25T09:56:56.927Z,16.70
2019-02-25T09:59:25.078Z,16.80
2019-02-25T10:01:53.079Z,16.80
2019-02-25T10:04:20.695Z,16.80
2019-02-25T10:06:48.585Z,16.70
2019-02-25T10:09:16.432Z,16.40
2019-02-25T10:11:48.702Z,16.10
2019-02-25T10:14:16.228Z,15.90
2019-02-25T10:16:47.005Z,16.00
2019-02-25T10:19:15.052Z,15.90
2019-02-25T10:21:42.923Z,16.00
2019-02-25T10:24:10.967Z,16.10
2019-02-25T10:26:39.046Z,16.10
2019-02-25T10:29:07.274Z,16.30
2019-02-25T10:31:35.280Z,16.50
2019-02-25T10:34:05.355Z,16.60
2019-02-25T10:36:34.113Z,16.70
2019-02-25T10:39:02.072Z,16.80
2019-02-25T10:41:30.169Z,16.90
2019-02-25T10:44:00.126Z,17.00
2019-02-25T10:46:28.762Z,17.00
2019-02-25T10:49:04.956Z,17.00
2019-02-25T10:51:29.060Z,17.00
2019-02-25T10:53:57.626Z,17.10
2019-02-25T10:56:39.423Z,17.10
2019-02-25T10:59:08.326Z,17.20
2019-02-25T11:01:39.059Z,17.00
2019-02-25T11:04:10.806Z,16.40
2019-02-25T11:06:39.823Z,16.00
2019-02-25T11:09:33.473Z,16.40
2019-02-25T11:12:01.626Z,16.60
2019-02-25T11:14:31.224Z,16.90
2019-02-25T11:17:02.041Z,17.00
2019-02-25T11:19:30.715Z,17.00
2019-02-25T11:22:01.215Z,17.00
2019-02-25T11:24:29.726Z,16.90
2019-02-25T11:26:59.039Z,17.00
2019-02-25T11:29:28.672Z,17.00
2019-02-25T11:31:57.029Z,16.90
2019-02-25T11:34:25.097Z,17.10
2019-02-25T11:36:54.939Z,17.10
2019-02-25T11:39:25.171Z,17.20
2019-02-25T11:41:53.044Z,17.20
2019-02-25T11:44:22.991Z,17.30
2019-02-25T11:46:51.657Z,17.30
2019-02-25T11:49:19.706Z,17.20
2019-02-25T11:51:48.049Z,17.20
2019-02-25T11:54:17.369Z,17.30
2019-02-25T11:56:45.655Z,17.40
2019-02-25T11:59:14.839Z,17.60
2019-02-25T12:01:42.512Z,17.70
2019-02-25T12:04:11.242Z,17.60
2019-02-25T12:06:39.645Z,17.60
2019-02-25T12:09:09.954Z,17.70
2019-02-25T12:11:39.977Z,17.70
2019-02-25T12:14:08.927Z,17.50
2019-02-25T12:16:37.976Z,17.50
2019-02-25T12:19:05.924Z,17.60
2019-02-25T12:21:33.816Z,17.40
2019-02-25T12:24:01.855Z,17.50
2019-02-25T12:26:29.995Z,17.40
2019-02-25T12:28:58.304Z,17.50
2019-02-25T12:31:33.989Z,17.60
2019-02-25T12:34:03.164Z,17.80
2019-02-25T12:36:33.729Z,17.90
2019-02-25T12:39:02.600Z,17.90
2019-02-25T12:41:32.703Z,18.10
2019-02-25T12:44:01.458Z,18.10
2019-02-25T12:46:29.164Z,18.10
2019-02-25T12:49:00.642Z,18.20
2019-02-25T12:51:29.536Z,18.20
2019-02-25T12:53:59.544Z,18.30
2019-02-25T12:56:27.293Z,18.20
2019-02-25T12:58:55.761Z,18.10
2019-02-25T13:01:24.329Z,18.10
2019-02-25T13:03:53.086Z,18.10
2019-02-25T13:06:22.398Z,18.10
2019-02-25T13:08:50.945Z,18.20
2019-02-25T13:11:21.363Z,18.30
2019-02-25T13:13:51.702Z,18.20
2019-02-25T13:16:19.874Z,18.10
2019-02-25T13:18:47.737Z,18.00
2019-02-25T13:21:17.276Z,17.80
2019-02-25T13:23:47.593Z,17.80
2019-02-25T13:26:16.364Z,17.70
2019-02-25T13:28:44.879Z,17.70
2019-02-25T13:31:14.068Z,17.70
2019-02-25T13:33:44.000Z,17.50
2019-02-25T13:36:15.365Z,17.30
2019-02-25T13:38:45.102Z,17.10
2019-02-25T13:41:13.907Z,17.00
2019-02-25T13:43:48.551Z,17.10
2019-02-25T13:46:17.819Z,17.00
2019-02-25T13:48:47.941Z,17.00
2019-02-25T13:51:19.527Z,17.00
2019-02-25T13:56:50.947Z,16.80
2019-02-25T13:59:23.311Z,16.80
2019-02-25T14:01:58.737Z,16.70
2019-02-25T14:04:27.358Z,16.60
2019-02-25T14:06:57.006Z,16.60
2019-02-25T14:09:25.300Z,16.60
2019-02-25T14:11:54.692Z,16.60
2019-02-25T14:14:24.133Z,16.60
2019-02-25T14:16:52.585Z,16.60
2019-02-25T14:19:22.268Z,16.60
2019-02-25T14:21:51.215Z,16.60
2019-02-25T14:24:20.787Z,16.50
2019-02-25T14:26:48.939Z,16.50
2019-02-25T14:29:18.104Z,16.50
2019-02-25T14:31:46.308Z,16.50
2019-02-25T14:34:15.823Z,16.50
2019-02-25T14:36:43.435Z,16.40
2019-02-25T14:39:27.816Z,16.40
2019-02-25T14:41:54.664Z,16.30
2019-02-25T14:44:27.173Z,16.20
2019-02-25T14:46:52.891Z,16.20
2019-02-25T14:49:20.644Z,16.20
2019-02-25T14:51:48.728Z,16.20
2019-02-25T14:54:19.814Z,16.10
2019-02-25T14:56:50.258Z,16.10
2019-02-25T14:59:22.256Z,16.10
2019-02-25T15:01:50.342Z,16.00
2019-02-25T15:04:18.585Z,16.00
2019-02-25T15:06:46.512Z,16.00
2019-02-25T15:09:16.254Z,15.90
2019-02-25T16:06:24.827Z,14.30
2019-02-25T16:09:00.449Z,14.10
2019-02-25T16:11:31.656Z,14.10
2019-02-25T16:14:00.673Z,14.00
2019-02-25T16:16:32.513Z,13.90
2019-02-25T16:19:01.823Z,13.90
2019-02-25T16:21:31.013Z,13.80
2019-02-25T16:24:04.309Z,13.70
2019-02-25T16:26:54.143Z,13.60
2019-02-25T16:29:24.564Z,13.50
2019-02-25T16:39:05.896Z,13.20
2019-02-25T16:41:38.717Z,13.00
2019-02-25T16:44:16.075Z,12.90
2019-02-25T16:46:59.924Z,12.80
2019-02-25T16:49:47.438Z,12.70
2019-02-25T16:53:20.228Z,12.50
2019-02-25T16:56:14.174Z,12.30
2019-02-25T17:02:30.108Z,12.10
2019-02-25T18:44:18.149Z,8.50
2019-02-25T18:46:49.899Z,8.50
2019-02-25T18:49:21.345Z,8.40
2019-02-25T18:52:03.214Z,8.40
2019-02-25T18:54:33.093Z,8.40
2019-02-25T18:57:12.180Z,8.40
2019-02-25T18:59:45.579Z,8.30
2019-02-25T19:02:14.570Z,8.30
2019-02-25T19:04:45.660Z,8.30
2019-02-25T19:07:15.588Z,8.20
2019-02-25T19:09:53.944Z,8.20
2019-02-25T19:12:25.663Z,8.20
2019-02-25T19:14:55.774Z,8.10
2019-02-25T19:17:25.422Z,8.10
2019-02-25T19:19:53.743Z,8.00
2019-02-25T19:22:21.670Z,7.90
2019-02-25T19:24:52.406Z,7.90
2019-02-25T19:27:20.948Z,7.90
2019-02-25T19:29:49.406Z,7.80
2019-02-25T19:32:20.990Z,7.80
2019-02-25T19:34:54.107Z,7.80
2019-02-25T19:37:28.901Z,7.70
2019-02-25T19:39:59.057Z,7.70
2019-02-25T19:42:29.549Z,7.60
2019-02-25T19:44:58.999Z,7.50
2019-02-25T19:47:43.111Z,7.40
2019-02-25T19:50:11.735Z,7.30
2019-02-25T19:52:41.864Z,7.10
2019-02-25T19:55:10.519Z,7.00
2019-02-25T19:57:38.588Z,6.80
2019-02-25T20:00:27.737Z,6.80
2019-02-25T20:03:04.757Z,6.70
2019-02-25T20:05:54.487Z,6.50
2019-02-25T20:08:20.130Z,6.40
2019-02-25T20:10:47.669Z,6.40
2019-02-25T20:13:15.991Z,6.30
2019-02-25T20:15:53.229Z,6.30
2019-02-25T20:18:27.179Z,6.30
2019-02-25T20:20:59.325Z,6.40
2019-02-25T20:23:29.221Z,6.40
2019-02-25T20:25:58.140Z,6.50
2019-02-25T20:28:26.840Z,6.50
2019-02-25T20:31:09.605Z,6.50
2019-02-25T20:33:43.548Z,6.50
2019-02-25T20:36:12.051Z,6.40
2019-02-25T20:38:44.907Z,6.40
2019-02-25T20:41:16.014Z,6.30
2019-02-25T20:43:47.217Z,6.20
2019-02-25T20:46:21.973Z,6.00
2019-02-25T20:48:48.549Z,5.90
2019-02-25T20:51:18.139Z,5.90
2019-02-25T20:53:57.160Z,5.90
2019-02-25T20:56:55.493Z,5.90
2019-02-25T20:59:25.778Z,6.00
2019-02-25T21:01:59.803Z,6.10
2019-02-25T21:04:27.874Z,6.10
2019-02-25T21:06:55.982Z,6.00
2019-02-25T21:09:24.694Z,6.00
2019-02-25T21:11:56.163Z,5.90
2019-02-25T21:14:24.040Z,5.80
2019-02-25T21:16:53.781Z,5.70
2019-02-25T21:19:21.943Z,5.70
2019-02-25T21:28:02.298Z,5.60
2019-02-25T21:30:30.225Z,5.50
2019-02-25T21:32:58.925Z,5.40
2019-02-25T21:35:28.299Z,5.40
2019-02-25T21:37:57.218Z,5.30
2019-02-25T21:40:27.120Z,5.30
2019-02-25T21:42:56.658Z,5.30
2019-02-25T21:45:26.508Z,5.20
2019-02-25T21:54:53.868Z,4.90
2019-02-25T21:57:21.821Z,4.80
2019-02-25T21:59:49.779Z,4.70
2019-02-25T22:02:19.940Z,4.70
2019-02-25T22:04:49.666Z,4.60
2019-02-25T22:07:22.240Z,4.50
2019-02-25T22:09:46.713Z,4.40
2019-02-25T22:12:14.589Z,4.40
2019-02-25T22:14:43.454Z,4.30
2019-02-25T22:17:12.950Z,4.30
2019-02-25T22:19:43.728Z,4.10
2019-02-25T22:22:11.597Z,4.00
2019-02-25T22:24:40.607Z,4.00
2019-02-25T22:27:09.639Z,3.90
2019-02-25T22:29:38.650Z,3.80
2019-02-25T22:32:08.751Z,3.80
2019-02-25T22:34:36.788Z,3.40
2019-02-25T22:40:30.064Z,3.20
2019-02-25T22:42:58.805Z,3.10
2019-02-25T22:45:26.582Z,3.00
2019-02-25T22:48:11.593Z,2.90
2019-02-25T22:50:29.062Z,2.90
2019-02-25T22:53:04.241Z,2.90
2019-02-25T22:55:47.304Z,2.90
2019-02-25T22:58:15.007Z,2.70
2019-02-25T23:00:48.914Z,2.70
2019-02-25T23:03:34.397Z,2.60
2019-02-25T23:06:01.207Z,2.50
2019-02-25T23:08:28.676Z,2.50
2019-02-25T23:11:09.997Z,2.50
2019-02-25T23:13:50.298Z,2.50
2019-02-25T23:16:22.193Z,2.50
2019-02-25T23:18:49.650Z,2.50
2019-02-25T23:21:23.784Z,2.40
2019-02-25T23:23:51.269Z,2.40
2019-02-25T23:26:19.881Z,2.40
2019-02-25T23:28:49.268Z,2.30
2019-02-25T23:31:18.400Z,2.20
2019-02-25T23:33:47.213Z,2.20
2019-02-25T23:36:17.531Z,2.10
2019-02-25T23:38:45.277Z,2.20
2019-02-25T23:41:14.431Z,2.40
2019-02-25T23:43:42.731Z,2.50
2019-02-25T23:46:11.872Z,2.50
2019-02-25T23:48:41.804Z,2.60
2019-02-25T23:51:09.856Z,2.60
2019-02-25T23:53:37.611Z,2.60
2019-02-25T23:56:05.507Z,2.50
2019-02-25T23:58:33.071Z,2.40
